sensor_id;sensor_type;location;lat;lon;timestamp;temperature;humidity
52211;DHT22;38179;52.756;6.906;2023-11-19T00:00:50;10.30;99.90
52211;DHT22;38179;52.756;6.906;2023-11-19T00:03:17;10.40;99.90
52211;DHT22;38179;52.756;6.906;2023-11-19T00:05:43;10.40;99.90
52211;DHT22;38179;52.756;6.906;2023-11-19T00:08:10;10.40;99.90
52211;DHT22;38179;52.756;6.906;2023-11-19T00:10:36;10.50;99.90
52211;DHT22;38179;52.756;6.906;2023-11-19T00:13:02;10.50;99.90
52211;DHT22;38179;52.756;6.906;2023-11-19T00:15:30;10.60;99.90
52211;DHT22;38179;52.756;6.906;2023-11-19T00:17:56;10.60;99.90
52211;DHT22;38179;52.756;6.906;2023-11-19T00:20:22;10.60;99.90
52211;DHT22;38179;52.756;6.906;2023-11-19T00:22:48;10.60;99.90
52211;DHT22;38179;52.756;6.906;2023-11-19T00:25:17;10.60;99.90
52211;DHT22;38179;52.756;6.906;2023-11-19T00:27:43;10.60;99.90
52211;DHT22;38179;52.756;6.906;2023-11-19T00:30:13;10.70;99.90
52211;DHT22;38179;52.756;6.906;2023-11-19T00:32:40;10.80;99.90
52211;DHT22;38179;52.756;6.906;2023-11-19T00:35:09;10.80;99.90
52211;DHT22;38179;52.756;6.906;2023-11-19T00:37:41;10.80;99.90
52211;DHT22;38179;52.756;6.906;2023-11-19T00:40:08;10.80;99.90
52211;DHT22;38179;52.756;6.906;2023-11-19T00:42:36;10.80;99.90
52211;DHT22;38179;52.756;6.906;2023-11-19T00:45:02;10.80;99.90
52211;DHT22;38179;52.756;6.906;2023-11-19T00:47:28;10.80;99.90
52211;DHT22;38179;52.756;6.906;2023-11-19T00:49:54;10.80;99.90
52211;DHT22;38179;52.756;6.906;2023-11-19T00:52:19;10.90;99.90
52211;DHT22;38179;52.756;6.906;2023-11-19T00:54:45;10.90;99.90
52211;DHT22;38179;52.756;6.906;2023-11-19T00:57:11;10.90;99.90
52211;DHT22;38179;52.756;6.906;2023-11-19T00:59:37;10.90;99.90
52211;DHT22;38179;52.756;6.906;2023-11-19T01:02:03;10.90;99.90
52211;DHT22;38179;52.756;6.906;2023-11-19T01:04:35;11.00;99.90
52211;DHT22;38179;52.756;6.906;2023-11-19T01:07:04;11.00;99.90
52211;DHT22;38179;52.756;6.906;2023-11-19T01:09:32;11.10;99.90
52211;DHT22;38179;52.756;6.906;2023-11-19T01:12:01;11.10;99.90
52211;DHT22;38179;52.756;6.906;2023-11-19T01:14:27;11.00;99.90
52211;DHT22;38179;52.756;6.906;2023-11-19T01:16:54;11.10;99.90
52211;DHT22;38179;52.756;6.906;2023-11-19T01:19:23;11.10;99.90
52211;DHT22;38179;52.756;6.906;2023-11-19T01:21:52;11.00;99.90
52211;DHT22;38179;52.756;6.906;2023-11-19T01:24:19;11.10;99.90
52211;DHT22;38179;52.756;6.906;2023-11-19T01:26:45;11.10;99.90
52211;DHT22;38179;52.756;6.906;2023-11-19T01:29:15;11.10;99.90
52211;DHT22;38179;52.756;6.906;2023-11-19T01:31:42;11.10;99.90
52211;DHT22;38179;52.756;6.906;2023-11-19T01:34:09;11.10;99.90
52211;DHT22;38179;52.756;6.906;2023-11-19T01:36:35;11.10;99.90
52211;DHT22;38179;52.756;6.906;2023-11-19T01:39:01;11.10;99.90
52211;DHT22;38179;52.756;6.906;2023-11-19T01:41:28;11.10;99.90
52211;DHT22;38179;52.756;6.906;2023-11-19T01:43:54;11.20;99.90
52211;DHT22;38179;52.756;6.906;2023-11-19T01:46:23;11.20;99.90
52211;DHT22;38179;52.756;6.906;2023-11-19T01:48:49;11.30;99.90
52211;DHT22;38179;52.756;6.906;2023-11-19T01:51:16;11.30;99.90
52211;DHT22;38179;52.756;6.906;2023-11-19T01:53:43;11.30;99.90
52211;DHT22;38179;52.756;6.906;2023-11-19T01:56:11;11.30;99.90
52211;DHT22;38179;52.756;6.906;2023-11-19T01:58:37;11.40;99.90
52211;DHT22;38179;52.756;6.906;2023-11-19T02:01:05;11.40;99.90
52211;DHT22;38179;52.756;6.906;2023-11-19T02:03:33;11.40;99.90
52211;DHT22;38179;52.756;6.906;2023-11-19T02:06:02;11.40;99.90
52211;DHT22;38179;52.756;6.906;2023-11-19T02:08:29;11.40;99.90
52211;DHT22;38179;52.756;6.906;2023-11-19T02:10:55;11.40;99.90
52211;DHT22;38179;52.756;6.906;2023-11-19T02:13:26;11.40;99.90
52211;DHT22;38179;52.756;6.906;2023-11-19T02:15:52;11.40;99.90
52211;DHT22;38179;52.756;6.906;2023-11-19T02:20:45;11.40;99.90
52211;DHT22;38179;52.756;6.906;2023-11-19T02:23:13;11.40;99.90
52211;DHT22;38179;52.756;6.906;2023-11-19T02:25:40;11.50;99.90
52211;DHT22;38179;52.756;6.906;2023-11-19T02:28:07;11.40;99.90
52211;DHT22;38179;52.756;6.906;2023-11-19T02:30:33;11.40;99.90
52211;DHT22;38179;52.756;6.906;2023-11-19T02:32:59;11.50;99.90
52211;DHT22;38179;52.756;6.906;2023-11-19T02:35:31;11.50;99.90
52211;DHT22;38179;52.756;6.906;2023-11-19T02:37:58;11.50;99.90
52211;DHT22;38179;52.756;6.906;2023-11-19T02:40:29;11.50;99.90
52211;DHT22;38179;52.756;6.906;2023-11-19T02:42:55;11.50;99.90
52211;DHT22;38179;52.756;6.906;2023-11-19T02:45:24;11.50;99.90
52211;DHT22;38179;52.756;6.906;2023-11-19T02:47:51;11.50;99.90
52211;DHT22;38179;52.756;6.906;2023-11-19T02:50:18;11.50;99.90
52211;DHT22;38179;52.756;6.906;2023-11-19T02:52:54;11.50;99.90
52211;DHT22;38179;52.756;6.906;2023-11-19T02:55:22;11.60;99.90
52211;DHT22;38179;52.756;6.906;2023-11-19T02:57:50;11.60;99.90
52211;DHT22;38179;52.756;6.906;2023-11-19T03:00:23;11.50;99.90
52211;DHT22;38179;52.756;6.906;2023-11-19T03:03:09;11.50;99.90
52211;DHT22;38179;52.756;6.906;2023-11-19T03:05:46;11.50;99.90
52211;DHT22;38179;52.756;6.906;2023-11-19T03:08:13;11.50;99.90
52211;DHT22;38179;52.756;6.906;2023-11-19T03:10:39;11.60;99.90
52211;DHT22;38179;52.756;6.906;2023-11-19T03:13:04;11.50;99.90
52211;DHT22;38179;52.756;6.906;2023-11-19T03:15:30;11.50;99.90
52211;DHT22;38179;52.756;6.906;2023-11-19T03:17:56;11.60;99.90
52211;DHT22;38179;52.756;6.906;2023-11-19T03:20:22;11.60;99.90
52211;DHT22;38179;52.756;6.906;2023-11-19T03:22:49;11.50;99.90
52211;DHT22;38179;52.756;6.906;2023-11-19T03:25:17;11.60;99.90
52211;DHT22;38179;52.756;6.906;2023-11-19T03:27:43;11.60;99.90
52211;DHT22;38179;52.756;6.906;2023-11-19T03:30:09;11.70;99.90
52211;DHT22;38179;52.756;6.906;2023-11-19T03:32:35;11.60;99.90
52211;DHT22;38179;52.756;6.906;2023-11-19T03:35:02;11.60;99.90
52211;DHT22;38179;52.756;6.906;2023-11-19T03:37:30;11.70;99.90
52211;DHT22;38179;52.756;6.906;2023-11-19T03:39:57;11.70;99.90
52211;DHT22;38179;52.756;6.906;2023-11-19T03:42:28;11.70;99.90
52211;DHT22;38179;52.756;6.906;2023-11-19T03:44:56;11.70;99.90
52211;DHT22;38179;52.756;6.906;2023-11-19T03:47:25;11.70;99.90
52211;DHT22;38179;52.756;6.906;2023-11-19T03:49:51;11.70;99.90
52211;DHT22;38179;52.756;6.906;2023-11-19T03:52:18;11.60;99.90
52211;DHT22;38179;52.756;6.906;2023-11-19T03:54:44;11.60;99.90
52211;DHT22;38179;52.756;6.906;2023-11-19T03:57:12;11.60;99.90
52211;DHT22;38179;52.756;6.906;2023-11-19T03:59:38;11.60;99.90
52211;DHT22;38179;52.756;6.906;2023-11-19T04:02:04;11.50;99.90
52211;DHT22;38179;52.756;6.906;2023-11-19T04:04:30;11.50;99.90
52211;DHT22;38179;52.756;6.906;2023-11-19T04:06:56;11.40;99.90
52211;DHT22;38179;52.756;6.906;2023-11-19T04:09:23;11.40;99.90
52211;DHT22;38179;52.756;6.906;2023-11-19T04:11:50;11.50;99.90
52211;DHT22;38179;52.756;6.906;2023-11-19T04:14:16;11.40;99.90
52211;DHT22;38179;52.756;6.906;2023-11-19T04:16:44;11.40;99.90
52211;DHT22;38179;52.756;6.906;2023-11-19T04:19:11;11.50;99.90
52211;DHT22;38179;52.756;6.906;2023-11-19T04:21:39;11.40;99.90
52211;DHT22;38179;52.756;6.906;2023-11-19T04:24:05;11.40;99.90
52211;DHT22;38179;52.756;6.906;2023-11-19T04:26:31;11.40;99.90
52211;DHT22;38179;52.756;6.906;2023-11-19T04:28:57;11.30;99.90
52211;DHT22;38179;52.756;6.906;2023-11-19T04:31:31;11.30;99.90
52211;DHT22;38179;52.756;6.906;2023-11-19T04:33:57;11.30;99.90
52211;DHT22;38179;52.756;6.906;2023-11-19T04:36:25;11.30;99.90
52211;DHT22;38179;52.756;6.906;2023-11-19T04:38:51;11.30;99.90
52211;DHT22;38179;52.756;6.906;2023-11-19T04:41:17;11.40;99.90
52211;DHT22;38179;52.756;6.906;2023-11-19T04:43:43;11.30;99.90
52211;DHT22;38179;52.756;6.906;2023-11-19T04:46:09;11.40;99.90
52211;DHT22;38179;52.756;6.906;2023-11-19T04:48:35;11.40;99.90
52211;DHT22;38179;52.756;6.906;2023-11-19T04:51:04;11.40;99.90
52211;DHT22;38179;52.756;6.906;2023-11-19T04:53:30;11.40;99.90
52211;DHT22;38179;52.756;6.906;2023-11-19T04:55:55;11.40;99.90
52211;DHT22;38179;52.756;6.906;2023-11-19T04:58:21;11.40;99.90
52211;DHT22;38179;52.756;6.906;2023-11-19T05:00:48;11.40;99.90
52211;DHT22;38179;52.756;6.906;2023-11-19T05:03:13;11.40;99.90
52211;DHT22;38179;52.756;6.906;2023-11-19T05:05:39;11.40;99.90
52211;DHT22;38179;52.756;6.906;2023-11-19T05:08:05;11.40;99.90
52211;DHT22;38179;52.756;6.906;2023-11-19T05:10:31;11.40;99.90
52211;DHT22;38179;52.756;6.906;2023-11-19T05:12:57;11.30;99.90
52211;DHT22;38179;52.756;6.906;2023-11-19T05:15:23;11.30;99.90
52211;DHT22;38179;52.756;6.906;2023-11-19T05:17:49;11.30;99.90
52211;DHT22;38179;52.756;6.906;2023-11-19T05:20:15;11.30;99.90
52211;DHT22;38179;52.756;6.906;2023-11-19T05:22:42;11.30;99.90
52211;DHT22;38179;52.756;6.906;2023-11-19T05:25:08;11.30;99.90
52211;DHT22;38179;52.756;6.906;2023-11-19T05:27:37;11.30;99.90
52211;DHT22;38179;52.756;6.906;2023-11-19T05:30:06;11.30;99.90
52211;DHT22;38179;52.756;6.906;2023-11-19T05:32:36;11.20;99.90
52211;DHT22;38179;52.756;6.906;2023-11-19T05:35:02;11.20;99.90
52211;DHT22;38179;52.756;6.906;2023-11-19T05:37:28;11.20;99.90
52211;DHT22;38179;52.756;6.906;2023-11-19T05:39:54;11.20;99.90
52211;DHT22;38179;52.756;6.906;2023-11-19T05:42:20;11.20;99.90
52211;DHT22;38179;52.756;6.906;2023-11-19T05:44:46;11.30;99.90
52211;DHT22;38179;52.756;6.906;2023-11-19T05:47:12;11.30;99.90
52211;DHT22;38179;52.756;6.906;2023-11-19T05:49:37;11.30;99.90
52211;DHT22;38179;52.756;6.906;2023-11-19T05:52:04;11.20;99.90
52211;DHT22;38179;52.756;6.906;2023-11-19T05:54:36;11.20;99.90
52211;DHT22;38179;52.756;6.906;2023-11-19T05:57:06;11.20;99.90
52211;DHT22;38179;52.756;6.906;2023-11-19T05:59:35;11.20;99.90
52211;DHT22;38179;52.756;6.906;2023-11-19T06:02:02;11.20;99.90
52211;DHT22;38179;52.756;6.906;2023-11-19T06:04:28;11.20;99.90
52211;DHT22;38179;52.756;6.906;2023-11-19T06:06:54;11.20;99.90
52211;DHT22;38179;52.756;6.906;2023-11-19T06:09:21;11.20;99.90
52211;DHT22;38179;52.756;6.906;2023-11-19T06:11:49;11.20;99.90
52211;DHT22;38179;52.756;6.906;2023-11-19T06:14:16;11.20;99.90
52211;DHT22;38179;52.756;6.906;2023-11-19T06:16:42;11.20;99.90
52211;DHT22;38179;52.756;6.906;2023-11-19T06:19:08;11.20;99.90
52211;DHT22;38179;52.756;6.906;2023-11-19T06:21:34;11.20;99.90
52211;DHT22;38179;52.756;6.906;2023-11-19T06:24:02;11.20;99.90
52211;DHT22;38179;52.756;6.906;2023-11-19T06:26:28;11.20;99.90
52211;DHT22;38179;52.756;6.906;2023-11-19T06:28:54;11.20;99.90
52211;DHT22;38179;52.756;6.906;2023-11-19T06:31:19;11.20;99.90
52211;DHT22;38179;52.756;6.906;2023-11-19T06:33:46;11.10;99.90
52211;DHT22;38179;52.756;6.906;2023-11-19T06:36:14;11.20;99.90
52211;DHT22;38179;52.756;6.906;2023-11-19T06:38:42;11.10;99.90
52211;DHT22;38179;52.756;6.906;2023-11-19T06:41:08;11.10;99.90
52211;DHT22;38179;52.756;6.906;2023-11-19T06:43:37;11.10;99.90
52211;DHT22;38179;52.756;6.906;2023-11-19T06:46:03;11.10;99.90
52211;DHT22;38179;52.756;6.906;2023-11-19T06:48:34;11.10;99.90
52211;DHT22;38179;52.756;6.906;2023-11-19T06:51:00;11.10;99.90
52211;DHT22;38179;52.756;6.906;2023-11-19T06:53:26;11.10;99.90
52211;DHT22;38179;52.756;6.906;2023-11-19T06:55:54;11.00;99.90
52211;DHT22;38179;52.756;6.906;2023-11-19T06:58:20;11.00;99.90
52211;DHT22;38179;52.756;6.906;2023-11-19T07:00:46;10.90;99.90
52211;DHT22;38179;52.756;6.906;2023-11-19T07:03:12;10.90;99.90
52211;DHT22;38179;52.756;6.906;2023-11-19T07:05:38;10.90;99.90
52211;DHT22;38179;52.756;6.906;2023-11-19T07:08:06;10.90;99.90
52211;DHT22;38179;52.756;6.906;2023-11-19T07:10:33;10.90;99.90
52211;DHT22;38179;52.756;6.906;2023-11-19T07:12:59;10.90;99.90
52211;DHT22;38179;52.756;6.906;2023-11-19T07:15:25;10.80;99.90
52211;DHT22;38179;52.756;6.906;2023-11-19T07:17:51;10.80;99.90
52211;DHT22;38179;52.756;6.906;2023-11-19T07:20:20;10.80;99.90
52211;DHT22;38179;52.756;6.906;2023-11-19T07:22:45;10.80;99.90
52211;DHT22;38179;52.756;6.906;2023-11-19T07:25:14;10.80;99.90
52211;DHT22;38179;52.756;6.906;2023-11-19T07:27:40;10.80;99.90
52211;DHT22;38179;52.756;6.906;2023-11-19T07:30:07;10.80;99.90
52211;DHT22;38179;52.756;6.906;2023-11-19T07:32:33;10.80;99.90
52211;DHT22;38179;52.756;6.906;2023-11-19T07:34:59;10.80;99.90
52211;DHT22;38179;52.756;6.906;2023-11-19T07:37:25;10.80;99.90
52211;DHT22;38179;52.756;6.906;2023-11-19T07:39:51;10.80;99.90
52211;DHT22;38179;52.756;6.906;2023-11-19T07:42:17;10.80;99.90
52211;DHT22;38179;52.756;6.906;2023-11-19T07:44:44;10.80;99.90
52211;DHT22;38179;52.756;6.906;2023-11-19T07:47:09;10.70;99.90
52211;DHT22;38179;52.756;6.906;2023-11-19T07:49:36;10.80;99.90
52211;DHT22;38179;52.756;6.906;2023-11-19T07:52:02;10.80;99.90
52211;DHT22;38179;52.756;6.906;2023-11-19T07:54:28;10.80;99.90
52211;DHT22;38179;52.756;6.906;2023-11-19T07:56:54;10.80;99.90
52211;DHT22;38179;52.756;6.906;2023-11-19T07:59:21;10.80;99.90
52211;DHT22;38179;52.756;6.906;2023-11-19T08:01:47;10.80;99.90
52211;DHT22;38179;52.756;6.906;2023-11-19T08:04:13;10.80;99.90
52211;DHT22;38179;52.756;6.906;2023-11-19T08:06:39;10.90;99.90
52211;DHT22;38179;52.756;6.906;2023-11-19T08:09:05;10.90;99.90
52211;DHT22;38179;52.756;6.906;2023-11-19T08:11:32;10.90;99.90
52211;DHT22;38179;52.756;6.906;2023-11-19T08:13:59;10.90;99.90
52211;DHT22;38179;52.756;6.906;2023-11-19T08:16:25;10.90;99.90
52211;DHT22;38179;52.756;6.906;2023-11-19T08:18:51;10.90;99.90
52211;DHT22;38179;52.756;6.906;2023-11-19T08:21:16;10.80;99.90
52211;DHT22;38179;52.756;6.906;2023-11-19T08:23:42;10.80;99.90
52211;DHT22;38179;52.756;6.906;2023-11-19T08:26:08;10.90;99.90
52211;DHT22;38179;52.756;6.906;2023-11-19T08:28:35;10.90;99.90
52211;DHT22;38179;52.756;6.906;2023-11-19T08:31:01;10.90;99.90
52211;DHT22;38179;52.756;6.906;2023-11-19T08:33:29;10.90;99.90
52211;DHT22;38179;52.756;6.906;2023-11-19T08:35:55;10.90;99.90
52211;DHT22;38179;52.756;6.906;2023-11-19T08:38:21;10.90;99.90
52211;DHT22;38179;52.756;6.906;2023-11-19T08:40:47;10.90;99.90
52211;DHT22;38179;52.756;6.906;2023-11-19T08:43:13;10.90;99.90
52211;DHT22;38179;52.756;6.906;2023-11-19T08:45:39;10.80;99.90
52211;DHT22;38179;52.756;6.906;2023-11-19T08:48:05;10.90;99.90
52211;DHT22;38179;52.756;6.906;2023-11-19T08:50:31;10.90;99.90
52211;DHT22;38179;52.756;6.906;2023-11-19T08:52:56;10.90;99.90
52211;DHT22;38179;52.756;6.906;2023-11-19T08:55:22;10.90;99.90
52211;DHT22;38179;52.756;6.906;2023-11-19T08:57:48;10.90;99.90
52211;DHT22;38179;52.756;6.906;2023-11-19T09:00:14;10.90;99.90
52211;DHT22;38179;52.756;6.906;2023-11-19T09:02:40;10.80;99.90
52211;DHT22;38179;52.756;6.906;2023-11-19T09:05:06;10.80;99.90
52211;DHT22;38179;52.756;6.906;2023-11-19T09:07:35;10.80;99.90
52211;DHT22;38179;52.756;6.906;2023-11-19T09:10:01;10.70;99.90
52211;DHT22;38179;52.756;6.906;2023-11-19T09:12:27;10.60;99.90
52211;DHT22;38179;52.756;6.906;2023-11-19T09:14:53;10.60;99.90
52211;DHT22;38179;52.756;6.906;2023-11-19T09:17:19;10.60;99.90
52211;DHT22;38179;52.756;6.906;2023-11-19T09:19:45;10.50;99.90
52211;DHT22;38179;52.756;6.906;2023-11-19T09:22:11;10.60;99.90
52211;DHT22;38179;52.756;6.906;2023-11-19T09:24:37;10.60;99.90
52211;DHT22;38179;52.756;6.906;2023-11-19T09:27:03;10.70;99.90
52211;DHT22;38179;52.756;6.906;2023-11-19T09:29:31;10.70;99.90
52211;DHT22;38179;52.756;6.906;2023-11-19T09:31:58;10.70;99.90
52211;DHT22;38179;52.756;6.906;2023-11-19T09:34:24;10.70;99.90
52211;DHT22;38179;52.756;6.906;2023-11-19T09:36:50;10.80;99.90
52211;DHT22;38179;52.756;6.906;2023-11-19T09:39:16;10.80;99.90
52211;DHT22;38179;52.756;6.906;2023-11-19T09:41:44;10.80;99.90
52211;DHT22;38179;52.756;6.906;2023-11-19T09:44:13;10.90;99.90
52211;DHT22;38179;52.756;6.906;2023-11-19T09:46:43;10.80;99.90
52211;DHT22;38179;52.756;6.906;2023-11-19T09:49:10;10.80;99.90
52211;DHT22;38179;52.756;6.906;2023-11-19T09:51:36;10.80;99.90
52211;DHT22;38179;52.756;6.906;2023-11-19T09:54:02;10.90;99.90
52211;DHT22;38179;52.756;6.906;2023-11-19T09:56:33;10.90;99.90
52211;DHT22;38179;52.756;6.906;2023-11-19T09:59:01;10.90;99.90
52211;DHT22;38179;52.756;6.906;2023-11-19T10:01:27;11.00;99.90
52211;DHT22;38179;52.756;6.906;2023-11-19T10:03:55;11.10;99.90
52211;DHT22;38179;52.756;6.906;2023-11-19T10:06:21;11.20;99.90
52211;DHT22;38179;52.756;6.906;2023-11-19T10:08:48;11.20;99.90
52211;DHT22;38179;52.756;6.906;2023-11-19T10:11:14;11.20;99.90
52211;DHT22;38179;52.756;6.906;2023-11-19T10:13:41;11.30;99.90
52211;DHT22;38179;52.756;6.906;2023-11-19T10:16:15;11.30;99.90
52211;DHT22;38179;52.756;6.906;2023-11-19T10:18:47;11.30;99.90
52211;DHT22;38179;52.756;6.906;2023-11-19T10:21:14;11.40;99.90
52211;DHT22;38179;52.756;6.906;2023-11-19T10:23:54;11.30;99.90
52211;DHT22;38179;52.756;6.906;2023-11-19T10:26:21;11.30;99.90
52211;DHT22;38179;52.756;6.906;2023-11-19T10:28:48;11.30;99.90
52211;DHT22;38179;52.756;6.906;2023-11-19T10:31:18;11.30;99.90
52211;DHT22;38179;52.756;6.906;2023-11-19T10:33:44;11.30;99.90
52211;DHT22;38179;52.756;6.906;2023-11-19T10:36:11;11.30;99.90
52211;DHT22;38179;52.756;6.906;2023-11-19T10:38:38;11.30;99.90
52211;DHT22;38179;52.756;6.906;2023-11-19T10:41:04;11.30;99.90
52211;DHT22;38179;52.756;6.906;2023-11-19T10:43:43;11.30;99.90
52211;DHT22;38179;52.756;6.906;2023-11-19T10:46:14;11.30;99.90
52211;DHT22;38179;52.756;6.906;2023-11-19T10:48:46;11.20;99.90
52211;DHT22;38179;52.756;6.906;2023-11-19T10:51:13;11.20;99.90
52211;DHT22;38179;52.756;6.906;2023-11-19T10:53:49;11.10;99.90
52211;DHT22;38179;52.756;6.906;2023-11-19T10:56:17;11.10;99.90
52211;DHT22;38179;52.756;6.906;2023-11-19T10:58:46;11.20;99.90
52211;DHT22;38179;52.756;6.906;2023-11-19T11:01:18;11.10;99.90
52211;DHT22;38179;52.756;6.906;2023-11-19T11:03:46;11.20;99.90
52211;DHT22;38179;52.756;6.906;2023-11-19T11:06:13;11.20;99.90
52211;DHT22;38179;52.756;6.906;2023-11-19T11:08:39;11.30;99.90
52211;DHT22;38179;52.756;6.906;2023-11-19T11:11:07;11.30;99.90
52211;DHT22;38179;52.756;6.906;2023-11-19T11:13:33;11.30;99.90
52211;DHT22;38179;52.756;6.906;2023-11-19T11:16:00;11.40;99.90
52211;DHT22;38179;52.756;6.906;2023-11-19T11:18:26;11.40;99.90
52211;DHT22;38179;52.756;6.906;2023-11-19T11:20:57;11.50;99.90
52211;DHT22;38179;52.756;6.906;2023-11-19T11:23:35;11.50;99.90
52211;DHT22;38179;52.756;6.906;2023-11-19T11:28:56;11.60;99.90
52211;DHT22;38179;52.756;6.906;2023-11-19T11:34:58;11.70;99.90
52211;DHT22;38179;52.756;6.906;2023-11-19T11:37:37;11.70;99.90
52211;DHT22;38179;52.756;6.906;2023-11-19T11:40:05;11.70;99.90
52211;DHT22;38179;52.756;6.906;2023-11-19T11:42:36;11.70;99.90
52211;DHT22;38179;52.756;6.906;2023-11-19T11:45:07;11.70;99.90
52211;DHT22;38179;52.756;6.906;2023-11-19T11:55:52;11.60;99.90
52211;DHT22;38179;52.756;6.906;2023-11-19T11:58:20;11.60;99.90
52211;DHT22;38179;52.756;6.906;2023-11-19T12:00:48;11.50;99.90
52211;DHT22;38179;52.756;6.906;2023-11-19T12:03:14;11.50;99.90
52211;DHT22;38179;52.756;6.906;2023-11-19T12:05:47;11.40;99.90
52211;DHT22;38179;52.756;6.906;2023-11-19T12:08:14;11.40;99.90
52211;DHT22;38179;52.756;6.906;2023-11-19T12:10:53;11.40;99.90
52211;DHT22;38179;52.756;6.906;2023-11-19T12:13:20;11.30;99.90
52211;DHT22;38179;52.756;6.906;2023-11-19T12:18:28;11.10;99.90
52211;DHT22;38179;52.756;6.906;2023-11-19T12:20:55;11.10;99.90
52211;DHT22;38179;52.756;6.906;2023-11-19T12:23:22;11.10;99.90
52211;DHT22;38179;52.756;6.906;2023-11-19T12:25:48;11.10;99.90
52211;DHT22;38179;52.756;6.906;2023-11-19T12:28:15;11.10;99.90
52211;DHT22;38179;52.756;6.906;2023-11-19T12:30:45;11.10;99.90
52211;DHT22;38179;52.756;6.906;2023-11-19T12:33:14;11.10;99.90
52211;DHT22;38179;52.756;6.906;2023-11-19T12:35:47;11.20;99.90
52211;DHT22;38179;52.756;6.906;2023-11-19T12:38:20;11.10;99.90
52211;DHT22;38179;52.756;6.906;2023-11-19T12:40:47;11.10;99.90
52211;DHT22;38179;52.756;6.906;2023-11-19T12:43:22;11.20;99.90
52211;DHT22;38179;52.756;6.906;2023-11-19T12:45:48;11.30;99.90
52211;DHT22;38179;52.756;6.906;2023-11-19T12:48:14;11.30;99.90
52211;DHT22;38179;52.756;6.906;2023-11-19T12:50:58;11.40;99.90
52211;DHT22;38179;52.756;6.906;2023-11-19T12:53:26;11.50;99.90
52211;DHT22;38179;52.756;6.906;2023-11-19T12:55:53;11.50;99.90
52211;DHT22;38179;52.756;6.906;2023-11-19T12:58:36;11.50;99.90
52211;DHT22;38179;52.756;6.906;2023-11-19T13:01:04;11.60;99.90
52211;DHT22;38179;52.756;6.906;2023-11-19T13:03:35;11.60;99.90
52211;DHT22;38179;52.756;6.906;2023-11-19T13:06:06;11.60;99.90
52211;DHT22;38179;52.756;6.906;2023-11-19T13:08:44;11.60;99.90
52211;DHT22;38179;52.756;6.906;2023-11-19T13:11:11;11.60;99.90
52211;DHT22;38179;52.756;6.906;2023-11-19T13:14:00;11.60;99.90
52211;DHT22;38179;52.756;6.906;2023-11-19T13:16:27;11.60;99.90
52211;DHT22;38179;52.756;6.906;2023-11-19T13:18:53;11.50;99.90
52211;DHT22;38179;52.756;6.906;2023-11-19T13:21:19;11.50;99.90
52211;DHT22;38179;52.756;6.906;2023-11-19T13:23:45;11.50;99.90
52211;DHT22;38179;52.756;6.906;2023-11-19T13:26:11;11.50;99.90
52211;DHT22;38179;52.756;6.906;2023-11-19T13:28:38;11.40;99.90
52211;DHT22;38179;52.756;6.906;2023-11-19T13:31:04;11.40;99.90
52211;DHT22;38179;52.756;6.906;2023-11-19T13:33:30;11.40;99.90
52211;DHT22;38179;52.756;6.906;2023-11-19T13:35:56;11.30;99.90
52211;DHT22;38179;52.756;6.906;2023-11-19T13:38:22;11.30;99.90
52211;DHT22;38179;52.756;6.906;2023-11-19T13:40:51;11.30;99.90
52211;DHT22;38179;52.756;6.906;2023-11-19T13:43:17;11.30;99.90
52211;DHT22;38179;52.756;6.906;2023-11-19T13:45:43;11.20;99.90
52211;DHT22;38179;52.756;6.906;2023-11-19T13:48:09;11.20;99.90
52211;DHT22;38179;52.756;6.906;2023-11-19T13:50:35;11.20;99.90
52211;DHT22;38179;52.756;6.906;2023-11-19T13:53:01;11.20;99.90
52211;DHT22;38179;52.756;6.906;2023-11-19T13:55:27;11.20;99.90
52211;DHT22;38179;52.756;6.906;2023-11-19T13:57:52;11.20;99.90
52211;DHT22;38179;52.756;6.906;2023-11-19T14:00:18;11.10;99.90
52211;DHT22;38179;52.756;6.906;2023-11-19T14:02:46;11.10;99.90
52211;DHT22;38179;52.756;6.906;2023-11-19T14:05:13;11.00;99.90
52211;DHT22;38179;52.756;6.906;2023-11-19T14:07:40;11.00;99.90
52211;DHT22;38179;52.756;6.906;2023-11-19T14:10:07;11.00;99.90
52211;DHT22;38179;52.756;6.906;2023-11-19T14:12:42;11.00;99.90
52211;DHT22;38179;52.756;6.906;2023-11-19T14:15:09;11.00;99.90
52211;DHT22;38179;52.756;6.906;2023-11-19T14:17:38;10.90;99.90
52211;DHT22;38179;52.756;6.906;2023-11-19T14:20:05;10.90;99.90
52211;DHT22;38179;52.756;6.906;2023-11-19T14:22:49;10.90;99.90
52211;DHT22;38179;52.756;6.906;2023-11-19T14:25:18;10.90;99.90
52211;DHT22;38179;52.756;6.906;2023-11-19T14:27:44;10.80;99.90
52211;DHT22;38179;52.756;6.906;2023-11-19T14:30:12;10.80;99.90
52211;DHT22;38179;52.756;6.906;2023-11-19T14:32:42;10.70;99.90
52211;DHT22;38179;52.756;6.906;2023-11-19T14:35:10;10.70;99.90
52211;DHT22;38179;52.756;6.906;2023-11-19T14:37:36;10.70;99.90
52211;DHT22;38179;52.756;6.906;2023-11-19T14:40:02;10.70;99.90
52211;DHT22;38179;52.756;6.906;2023-11-19T14:42:32;10.70;99.90
52211;DHT22;38179;52.756;6.906;2023-11-19T14:44:58;10.70;99.90
52211;DHT22;38179;52.756;6.906;2023-11-19T14:47:24;10.70;99.90
52211;DHT22;38179;52.756;6.906;2023-11-19T14:49:50;10.60;99.90
52211;DHT22;38179;52.756;6.906;2023-11-19T14:52:17;10.70;99.90
52211;DHT22;38179;52.756;6.906;2023-11-19T14:54:43;10.60;99.90
52211;DHT22;38179;52.756;6.906;2023-11-19T14:57:09;10.60;99.90
52211;DHT22;38179;52.756;6.906;2023-11-19T14:59:36;10.60;99.90
52211;DHT22;38179;52.756;6.906;2023-11-19T15:02:02;10.60;99.90
52211;DHT22;38179;52.756;6.906;2023-11-19T15:04:29;10.60;99.90
52211;DHT22;38179;52.756;6.906;2023-11-19T15:06:59;10.60;99.90
52211;DHT22;38179;52.756;6.906;2023-11-19T15:09:25;10.60;99.90
52211;DHT22;38179;52.756;6.906;2023-11-19T15:11:53;10.60;99.90
52211;DHT22;38179;52.756;6.906;2023-11-19T15:14:19;10.50;99.90
52211;DHT22;38179;52.756;6.906;2023-11-19T15:16:46;10.60;99.90
52211;DHT22;38179;52.756;6.906;2023-11-19T15:19:13;10.60;99.90
52211;DHT22;38179;52.756;6.906;2023-11-19T15:21:40;10.50;99.90
52211;DHT22;38179;52.756;6.906;2023-11-19T15:24:06;10.50;99.90
52211;DHT22;38179;52.756;6.906;2023-11-19T15:26:36;10.50;99.90
52211;DHT22;38179;52.756;6.906;2023-11-19T15:29:04;10.50;99.90
52211;DHT22;38179;52.756;6.906;2023-11-19T15:31:31;10.50;99.90
52211;DHT22;38179;52.756;6.906;2023-11-19T15:33:57;10.50;99.90
52211;DHT22;38179;52.756;6.906;2023-11-19T15:36:23;10.50;99.90
52211;DHT22;38179;52.756;6.906;2023-11-19T15:38:49;10.50;99.90
52211;DHT22;38179;52.756;6.906;2023-11-19T15:41:15;10.50;99.90
52211;DHT22;38179;52.756;6.906;2023-11-19T15:43:42;10.50;99.90
52211;DHT22;38179;52.756;6.906;2023-11-19T15:46:08;10.40;99.90
52211;DHT22;38179;52.756;6.906;2023-11-19T15:48:35;10.40;99.90
52211;DHT22;38179;52.756;6.906;2023-11-19T15:51:01;10.40;99.90